Time;durP1;ratioP1;P1;durP2;ratioP2;P2;SDS_P1;SDS_P2;PMS_P1;PMS_P2;Temp;Humidity;BMP_temperature;BMP_pressure;BME280_temperature;BME280_humidity;BME280_pressure;Samples;Min_cycle;Max_cycle;Signal;HPM_P1;HPM_P2
2022/01/07 00:01:49;;;;;;;;;;;3.20;99.90;;;;;;5072575;28;19950;-78
2022/01/07 00:04:14;;;;;;;;;;;3.20;99.90;;;;;;5063824;28;19913;-78
2022/01/07 00:06:40;;;;;;;;;;;3.20;99.90;;;;;;5074733;28;19912;-77
2022/01/07 00:09:05;;;;;;;;;;;3.20;99.90;;;;;;5074215;28;19940;-78
2022/01/07 00:11:31;;;;;;;;;;;3.20;99.90;;;;;;5074127;28;19915;-78
2022/01/07 00:13:56;;;;;;;;;;;3.20;99.30;;;;;;5070897;28;19916;-79
2022/01/07 00:16:22;;;;;;;;;;;3.30;81.90;;;;;;5046781;28;19936;-78
2022/01/07 00:18:47;;;;;;;;;;;3.30;64.00;;;;;;5075173;28;19912;-78
2022/01/07 00:21:13;;;;;;;;;;;3.30;55.90;;;;;;5073478;28;19962;-78
2022/01/07 00:23:38;;;;;;;;;;;3.30;30.40;;;;;;5068247;28;19909;-78
2022/01/07 00:26:04;;;;;;;;;;;3.40;14.40;;;;;;5072773;28;19912;-78
2022/01/07 00:28:29;;;;;;;;;;;3.40;7.60;;;;;;5054399;28;19923;-78
2022/01/07 00:30:55;;;;;;;;;;;3.40;1.00;;;;;;5045812;28;19909;-78
2022/01/07 00:33:21;;;;;;;;;;;3.50;1.00;;;;;;5036770;28;20008;-78
2022/01/07 00:35:46;;;;;;;;;;;3.50;1.00;;;;;;5066412;28;19969;-77
2022/01/07 00:38:12;;;;;;;;;;;3.50;1.00;;;;;;5064097;28;19916;-78
2022/01/07 00:40:38;;;;;;;;;;;3.50;1.00;;;;;;5061678;28;19923;-78
2022/01/07 00:43:03;;;;;;;;;;;3.60;1.00;;;;;;5069219;28;19912;-78
2022/01/07 00:45:29;;;;;;;;;;;3.60;1.00;;;;;;5071865;28;20383;-78
2022/01/07 00:47:55;;;;;;;;;;;3.60;1.00;;;;;;5074099;28;19956;-78
2022/01/07 00:50:22;;;;;;;;;;;3.60;1.00;;;;;;5073719;28;19956;-78
2022/01/07 00:52:48;;;;;;;;;;;3.70;25.50;;;;;;5056399;28;20355;-78
2022/01/07 00:55:13;;;;;;;;;;;3.70;20.70;;;;;;5074340;28;19913;-78
2022/01/07 00:57:39;;;;;;;;;;;3.70;13.80;;;;;;5074380;28;19909;-78
2022/01/07 01:00:06;;;;;;;;;;;3.70;7.80;;;;;;5073264;28;20426;-78
2022/01/07 01:02:31;;;;;;;;;;;3.80;9.10;;;;;;5071112;28;19912;-79
2022/01/07 01:04:57;;;;;;;;;;;3.80;1.00;;;;;;5072606;28;19919;-78
2022/01/07 01:07:22;;;;;;;;;;;3.80;1.00;;;;;;5059498;28;19940;-78
2022/01/07 01:09:48;;;;;;;;;;;3.80;1.00;;;;;;5085063;28;19915;-78
2022/01/07 01:12:13;;;;;;;;;;;3.90;1.00;;;;;;5059347;28;19909;-78
2022/01/07 01:14:39;;;;;;;;;;;3.90;1.00;;;;;;5074403;28;19993;-78
2022/01/07 01:17:05;;;;;;;;;;;3.90;1.00;;;;;;5072464;28;19919;-78
2022/01/07 01:19:30;;;;;;;;;;;3.90;1.00;;;;;;5073621;28;20387;-77
2022/01/07 01:21:56;;;;;;;;;;;3.90;1.00;;;;;;5055685;28;19913;-78
2022/01/07 01:24:21;;;;;;;;;;;4.00;1.00;;;;;;5040211;28;20301;-78
2022/01/07 01:26:47;;;;;;;;;;;4.00;1.00;;;;;;5066066;28;19920;-78
2022/01/07 01:29:12;;;;;;;;;;;4.00;1.00;;;;;;5057189;28;20397;-78
2022/01/07 01:31:38;;;;;;;;;;;4.00;1.00;;;;;;5056108;28;19913;-78
2022/01/07 01:34:04;;;;;;;;;;;4.10;1.00;;;;;;5056911;28;19921;-78
2022/01/07 01:36:30;;;;;;;;;;;4.10;1.00;;;;;;5077271;28;20000;-78
2022/01/07 01:38:56;;;;;;;;;;;4.10;1.00;;;;;;5077605;28;19909;-78
2022/01/07 01:41:21;;;;;;;;;;;4.20;1.00;;;;;;5070267;28;19995;-78
2022/01/07 01:43:48;;;;;;;;;;;4.20;1.00;;;;;;5077037;28;19963;-78
2022/01/07 01:46:18;;;;;;;;;;;4.20;1.00;;;;;;5074519;28;19914;-78
2022/01/07 01:48:44;;;;;;;;;;;4.20;1.00;;;;;;5077374;28;19913;-78
2022/01/07 01:51:09;;;;;;;;;;;4.20;1.00;;;;;;5074022;28;19909;-78
2022/01/07 01:53:35;;;;;;;;;;;4.20;1.00;;;;;;5076088;28;19935;-78
2022/01/07 01:56:00;;;;;;;;;;;4.20;1.00;;;;;;5076757;28;19967;-79
2022/01/07 01:58:26;;;;;;;;;;;4.20;1.00;;;;;;5076636;28;20422;-78
2022/01/07 02:00:51;;;;;;;;;;;4.20;1.00;;;;;;5070751;28;19909;-78
2022/01/07 02:03:17;;;;;;;;;;;4.10;1.00;;;;;;5075321;28;19970;-77
2022/01/07 02:05:44;;;;;;;;;;;4.10;1.00;;;;;;5071234;28;19931;-78
2022/01/07 02:08:09;;;;;;;;;;;4.10;1.00;;;;;;5066054;28;19916;-78
2022/01/07 02:10:35;;;;;;;;;;;4.10;1.00;;;;;;5066996;28;19909;-78
2022/01/07 02:13:00;;;;;;;;;;;4.10;1.00;;;;;;5072063;28;19912;-79
2022/01/07 02:15:26;;;;;;;;;;;4.10;1.00;;;;;;5076448;28;20002;-78
2022/01/07 02:17:53;;;;;;;;;;;4.00;1.00;;;;;;5068601;28;20327;-78
2022/01/07 02:20:19;;;;;;;;;;;4.00;1.00;;;;;;5076438;28;19935;-78
2022/01/07 02:22:45;;;;;;;;;;;3.90;1.00;;;;;;5074514;28;19920;-78
2022/01/07 02:25:11;;;;;;;;;;;3.90;1.00;;;;;;5076146;28;20330;-78
2022/01/07 02:27:38;;;;;;;;;;;3.80;1.00;;;;;;5075892;28;19924;-78
2022/01/07 02:30:04;;;;;;;;;;;3.80;1.00;;;;;;5076856;28;19981;-78
2022/01/07 02:32:30;;;;;;;;;;;3.80;1.00;;;;;;5058299;28;19915;-78
2022/01/07 02:34:55;;;;;;;;;;;3.80;1.00;;;;;;5069188;28;19908;-78
2022/01/07 02:37:21;;;;;;;;;;;3.80;1.00;;;;;;5074652;28;19983;-78
2022/01/07 02:39:49;;;;;;;;;;;3.80;1.00;;;;;;5062124;28;20339;-77
2022/01/07 02:42:14;;;;;;;;;;;3.80;1.00;;;;;;5057840;28;20540;-78
2022/01/07 02:44:40;;;;;;;;;;;3.80;1.00;;;;;;5076203;28;19999;-78
2022/01/07 02:47:05;;;;;;;;;;;3.80;1.00;;;;;;5058506;28;19919;-78
2022/01/07 02:49:31;;;;;;;;;;;3.80;1.00;;;;;;5074714;28;19909;-78
2022/01/07 02:51:56;;;;;;;;;;;3.80;1.00;;;;;;5074813;28;19917;-78
2022/01/07 02:54:22;;;;;;;;;;;3.80;1.00;;;;;;5076434;28;19915;-78
2022/01/07 02:56:47;;;;;;;;;;;3.80;1.00;;;;;;5066225;28;19916;-78
2022/01/07 02:59:13;;;;;;;;;;;3.80;1.00;;;;;;5058615;28;19923;-78
2022/01/07 03:01:38;;;;;;;;;;;3.80;1.00;;;;;;5068857;28;20376;-78
2022/01/07 03:04:04;;;;;;;;;;;3.80;1.00;;;;;;5074741;28;19913;-79
2022/01/07 03:06:30;;;;;;;;;;;3.90;1.00;;;;;;5073712;28;19924;-77
2022/01/07 03:08:56;;;;;;;;;;;3.90;1.00;;;;;;5057085;28;19913;-78
2022/01/07 03:11:22;;;;;;;;;;;3.90;1.00;;;;;;5070372;28;19908;-78
2022/01/07 03:13:47;;;;;;;;;;;3.90;1.00;;;;;;5075159;28;19913;-78
2022/01/07 03:16:13;;;;;;;;;;;4.00;1.00;;;;;;5074695;28;19908;-79
2022/01/07 03:18:38;;;;;;;;;;;4.00;1.00;;;;;;5075263;28;20007;-78
2022/01/07 03:21:04;;;;;;;;;;;4.00;1.00;;;;;;5075167;28;19909;-78
2022/01/07 03:23:30;;;;;;;;;;;4.00;1.00;;;;;;5057602;28;19963;-78
2022/01/07 03:25:55;;;;;;;;;;;4.10;1.00;;;;;;5073726;28;19917;-78
2022/01/07 03:28:21;;;;;;;;;;;4.10;1.00;;;;;;5074151;28;19962;-78
2022/01/07 03:30:47;;;;;;;;;;;4.10;1.00;;;;;;5057694;28;19913;-77
2022/01/07 03:33:13;;;;;;;;;;;4.10;1.00;;;;;;5072926;28;20051;-78
2022/01/07 03:35:38;;;;;;;;;;;4.10;1.00;;;;;;5068807;28;19912;-77
2022/01/07 03:38:04;;;;;;;;;;;4.20;1.00;;;;;;5074656;28;19947;-78
2022/01/07 03:40:29;;;;;;;;;;;4.20;1.00;;;;;;5057230;28;20526;-77
2022/01/07 03:42:55;;;;;;;;;;;4.20;1.00;;;;;;5055131;28;19912;-78
2022/01/07 03:45:20;;;;;;;;;;;4.30;1.00;;;;;;5073710;28;20004;-78
2022/01/07 03:47:46;;;;;;;;;;;4.30;1.00;;;;;;5073987;28;19917;-78
2022/01/07 03:50:13;;;;;;;;;;;4.30;1.00;;;;;;5068438;28;20388;-78
2022/01/07 03:52:39;;;;;;;;;;;4.30;1.00;;;;;;5060317;28;19924;-78
2022/01/07 03:55:06;;;;;;;;;;;4.30;1.00;;;;;;5056586;28;20472;-78
2022/01/07 03:57:31;;;;;;;;;;;4.30;1.00;;;;;;5053982;28;19923;-78
2022/01/07 03:59:57;;;;;;;;;;;4.40;1.00;;;;;;5070308;28;19913;-77
2022/01/07 04:02:22;;;;;;;;;;;4.40;1.00;;;;;;5072306;28;19915;-78
2022/01/07 04:04:48;;;;;;;;;;;4.40;1.00;;;;;;5075190;28;19909;-78
2022/01/07 04:07:13;;;;;;;;;;;4.40;1.00;;;;;;5074261;28;20395;-78
2022/01/07 04:09:40;;;;;;;;;;;4.40;1.00;;;;;;5061743;28;19978;-78
2022/01/07 04:12:06;;;;;;;;;;;4.40;1.00;;;;;;5054992;28;19909;-78
2022/01/07 04:14:31;;;;;;;;;;;4.50;1.00;;;;;;5076576;28;20010;-77
2022/01/07 04:16:59;;;;;;;;;;;4.50;1.00;;;;;;5085636;28;19954;-79
2022/01/07 04:19:24;;;;;;;;;;;4.50;1.00;;;;;;5075097;28;19912;-78
2022/01/07 04:21:50;;;;;;;;;;;4.50;1.00;;;;;;5074954;28;19908;-78
2022/01/07 04:24:16;;;;;;;;;;;4.50;1.00;;;;;;5055448;28;19958;-78
2022/01/07 04:26:41;;;;;;;;;;;4.50;1.00;;;;;;5059348;28;20364;-78
2022/01/07 04:29:07;;;;;;;;;;;4.50;1.00;;;;;;5057448;28;19921;-78
2022/01/07 04:31:32;;;;;;;;;;;4.50;1.00;;;;;;5054991;28;19913;-77
2022/01/07 04:33:58;;;;;;;;;;;4.40;1.00;;;;;;5064531;28;19920;-78
2022/01/07 04:36:23;;;;;;;;;;;4.40;1.00;;;;;;5071958;28;19912;-78
2022/01/07 04:38:49;;;;;;;;;;;4.40;1.00;;;;;;5074764;28;20010;-78
2022/01/07 04:41:14;;;;;;;;;;;4.40;1.00;;;;;;5073829;28;19913;-78
2022/01/07 04:43:39;;;;;;;;;;;4.40;1.00;;;;;;5069922;28;19913;-77
2022/01/07 04:46:05;;;;;;;;;;;4.40;1.00;;;;;;5062126;28;19912;-77
2022/01/07 04:48:30;;;;;;;;;;;4.40;1.00;;;;;;5060080;28;20491;-78
2022/01/07 04:50:56;;;;;;;;;;;4.30;99.90;;;;;;5068565;28;19962;-80
2022/01/07 04:53:22;;;;;;;;;;;4.20;99.90;;;;;;5062965;28;19909;-78
2022/01/07 04:55:47;;;;;;;;;;;4.20;99.90;;;;;;5054360;28;19909;-78
2022/01/07 04:58:13;;;;;;;;;;;4.10;72.90;;;;;;5067596;28;19913;-78
2022/01/07 05:00:41;;;;;;;;;;;4.10;99.90;;;;;;5071836;28;19987;-78
2022/01/07 05:03:07;;;;;;;;;;;4.00;1.00;;;;;;5076333;28;19916;-78
2022/01/07 05:05:32;;;;;;;;;;;4.00;99.90;;;;;;5062532;28;20369;-78
2022/01/07 05:07:58;;;;;;;;;;;4.00;99.90;;;;;;5074229;28;19916;-78
2022/01/07 05:10:24;;;;;;;;;;;3.90;1.00;;;;;;5068226;28;20055;-78
2022/01/07 05:12:49;;;;;;;;;;;3.90;99.90;;;;;;5071485;28;19919;-78
2022/01/07 05:15:15;;;;;;;;;;;3.90;99.90;;;;;;5075806;28;20432;-78
2022/01/07 05:17:42;;;;;;;;;;;3.80;99.90;;;;;;5068826;28;19913;-78
2022/01/07 05:20:07;;;;;;;;;;;3.80;99.90;;;;;;5057188;28;20348;-78
2022/01/07 05:22:33;;;;;;;;;;;3.80;99.90;;;;;;5058134;28;20004;-80
2022/01/07 05:24:58;;;;;;;;;;;3.80;99.90;;;;;;5058182;28;20352;-78
2022/01/07 05:27:24;;;;;;;;;;;3.70;99.90;;;;;;5062331;28;19916;-78
2022/01/07 05:29:49;;;;;;;;;;;3.70;99.90;;;;;;5072939;28;20392;-78
2022/01/07 05:32:15;;;;;;;;;;;3.60;99.90;;;;;;5078136;28;19953;-78
2022/01/07 05:34:40;;;;;;;;;;;3.60;99.90;;;;;;5078270;28;19944;-78
2022/01/07 05:37:07;;;;;;;;;;;3.50;99.90;;;;;;5074528;28;19936;-78
2022/01/07 05:39:32;;;;;;;;;;;3.50;1.00;;;;;;5099199;22;19908;-79
2022/01/07 05:41:59;;;;;;;;;;;3.60;1.00;;;;;;5036382;28;20404;-79
2022/01/07 05:44:25;;;;;;;;;;;3.50;1.00;;;;;;5039124;28;19979;-80
2022/01/07 05:46:51;;;;;;;;;;;3.50;1.00;;;;;;5048297;28;19921;-79
2022/01/07 05:49:16;;;;;;;;;;;3.60;1.00;;;;;;5038051;28;19920;-80
2022/01/07 05:51:42;;;;;;;;;;;3.60;1.00;;;;;;5038655;28;19913;-81
2022/01/07 05:54:08;;;;;;;;;;;3.60;1.00;;;;;;5038316;28;19913;-79
2022/01/07 05:56:33;;;;;;;;;;;3.60;99.90;;;;;;5038514;28;19920;-78
2022/01/07 05:58:59;;;;;;;;;;;3.60;99.90;;;;;;5038215;28;19913;-80
2022/01/07 06:01:24;;;;;;;;;;;3.60;99.90;;;;;;5037327;28;19913;-78
2022/01/07 06:03:49;;;;;;;;;;;3.60;99.90;;;;;;5038995;28;19917;-80
2022/01/07 06:06:15;;;;;;;;;;;3.70;99.90;;;;;;5036312;28;21744;-78
2022/01/07 06:08:40;;;;;;;;;;;3.70;99.90;;;;;;5038554;28;20351;-78
2022/01/07 06:11:06;;;;;;;;;;;3.70;99.90;;;;;;5032770;28;19954;-79
2022/01/07 06:13:31;;;;;;;;;;;3.70;99.90;;;;;;5034674;28;20019;-77
2022/01/07 06:15:57;;;;;;;;;;;3.70;99.90;;;;;;5030824;28;19967;-78
2022/01/07 06:18:22;;;;;;;;;;;3.70;99.90;;;;;;5033706;28;19913;-78
2022/01/07 06:20:48;;;;;;;;;;;3.80;99.90;;;;;;5032599;28;19928;-78
2022/01/07 06:23:13;;;;;;;;;;;3.80;99.90;;;;;;5035322;28;19924;-80
2022/01/07 06:25:39;;;;;;;;;;;3.80;99.90;;;;;;5035956;28;20392;-78
2022/01/07 06:28:04;;;;;;;;;;;3.80;99.90;;;;;;5037421;28;19917;-79
2022/01/07 06:30:30;;;;;;;;;;;3.90;99.90;;;;;;5036769;28;20285;-79
2022/01/07 06:32:55;;;;;;;;;;;3.90;99.90;;;;;;5037889;28;19913;-82
2022/01/07 06:35:21;;;;;;;;;;;3.90;99.90;;;;;;5035742;28;20330;-78
2022/01/07 06:37:46;;;;;;;;;;;3.90;99.90;;;;;;5036639;28;19921;-79
2022/01/07 06:40:12;;;;;;;;;;;4.00;99.90;;;;;;5036070;28;19968;-79
2022/01/07 06:42:37;;;;;;;;;;;4.00;99.90;;;;;;5037648;28;19955;-79
2022/01/07 06:45:05;;;;;;;;;;;4.00;99.90;;;;;;5036705;28;19959;-79
2022/01/07 06:47:30;;;;;;;;;;;4.00;99.90;;;;;;5037946;28;19913;-80
2022/01/07 06:49:56;;;;;;;;;;;4.00;99.90;;;;;;5032695;28;19936;-80
2022/01/07 06:52:21;;;;;;;;;;;4.00;99.90;;;;;;5036400;28;20203;-78
2022/01/07 06:54:47;;;;;;;;;;;4.10;99.90;;;;;;5036419;28;19924;-80
2022/01/07 06:57:12;;;;;;;;;;;4.10;99.90;;;;;;5038132;28;19924;-80
2022/01/07 06:59:38;;;;;;;;;;;4.10;99.90;;;;;;5035242;28;20032;-80
2022/01/07 07:02:03;;;;;;;;;;;4.10;99.90;;;;;;5038717;28;19917;-80
2022/01/07 07:04:29;;;;;;;;;;;4.10;50.30;;;;;;5035599;28;19913;-80
2022/01/07 07:06:55;;;;;;;;;;;4.10;1.00;;;;;;5038765;28;19917;-79
2022/01/07 07:09:20;;;;;;;;;;;4.20;46.80;;;;;;5034036;28;19959;-80
2022/01/07 07:11:46;;;;;;;;;;;4.20;1.00;;;;;;5042063;28;19916;-78
2022/01/07 07:14:12;;;;;;;;;;;4.30;1.00;;;;;;5040571;28;19913;-82
2022/01/07 07:16:38;;;;;;;;;;;4.40;99.90;;;;;;5038679;28;19923;-78
2022/01/07 07:19:03;;;;;;;;;;;4.40;99.90;;;;;;5040909;28;19921;-80
2022/01/07 07:21:28;;;;;;;;;;;4.40;6.20;;;;;;5040689;28;19971;-80
2022/01/07 07:23:54;;;;;;;;;;;4.40;99.90;;;;;;5037621;28;20377;-81
2022/01/07 07:26:19;;;;;;;;;;;4.40;99.90;;;;;;5037178;28;19913;-79
2022/01/07 07:28:46;;;;;;;;;;;4.50;99.90;;;;;;5030555;28;20297;-80
2022/01/07 07:31:14;;;;;;;;;;;4.50;99.90;;;;;;5035909;28;20344;-79
2022/01/07 07:36:27;;;;;;;;;;;4.50;99.90;;;;;;5036594;28;19919;-80
2022/01/07 07:39:08;;;;;;;;;;;4.50;99.90;;;;;;5037489;28;19939;-79
2022/01/07 07:41:34;;;;;;;;;;;4.50;99.90;;;;;;5036138;28;19921;-81
2022/01/07 07:44:00;;;;;;;;;;;4.50;99.90;;;;;;5035925;28;20063;-81
2022/01/07 07:46:27;;;;;;;;;;;4.50;99.90;;;;;;5037041;28;20004;-81
2022/01/07 07:48:53;;;;;;;;;;;4.50;99.90;;;;;;5034392;28;19959;-82
2022/01/07 07:51:18;;;;;;;;;;;4.50;99.90;;;;;;5034820;28;19925;-79
2022/01/07 07:53:44;;;;;;;;;;;4.50;99.90;;;;;;5033058;28;19976;-81
2022/01/07 07:56:11;;;;;;;;;;;4.50;99.90;;;;;;5035684;28;19942;-82
2022/01/07 07:58:36;;;;;;;;;;;4.50;99.90;;;;;;5035589;28;19917;-80
2022/01/07 08:01:02;;;;;;;;;;;4.50;99.90;;;;;;5035064;28;20408;-81
2022/01/07 08:03:27;;;;;;;;;;;4.60;99.90;;;;;;5032804;28;20502;-80
2022/01/07 08:05:53;;;;;;;;;;;4.60;99.90;;;;;;5026750;28;19945;-81
2022/01/07 08:08:18;;;;;;;;;;;4.60;99.90;;;;;;5027030;28;19913;-81
2022/01/07 08:10:48;;;;;;;;;;;4.60;86.30;;;;;;5032207;28;19913;-78
2022/01/07 08:15:58;;;;;;;;;;;4.70;1.00;;;;;;5031513;28;19913;-79
2022/01/07 08:18:37;;;;;;;;;;;4.70;1.00;;;;;;5032332;28;19976;-79
2022/01/07 08:21:04;;;;;;;;;;;4.70;1.00;;;;;;5034994;28;20340;-79
2022/01/07 08:23:30;;;;;;;;;;;4.70;1.00;;;;;;5035634;28;20035;-79
2022/01/07 08:25:56;;;;;;;;;;;4.70;1.00;;;;;;5033817;28;19913;-81
2022/01/07 08:28:25;;;;;;;;;;;4.80;1.00;;;;;;5035087;28;19913;-79
2022/01/07 08:36:17;;;;;;;;;;;4.80;99.90;;;;;;5030634;28;19983;-79
2022/01/07 08:38:43;;;;;;;;;;;4.90;99.90;;;;;;5030742;28;19917;-80
2022/01/07 08:41:09;;;;;;;;;;;4.90;99.90;;;;;;5030126;28;19972;-79
2022/01/07 08:43:34;;;;;;;;;;;4.90;99.90;;;;;;5031181;28;20385;-80
2022/01/07 08:46:00;;;;;;;;;;;5.00;99.90;;;;;;5046435;28;20392;-80
2022/01/07 08:48:27;;;;;;;;;;;5.00;21.10;;;;;;5033306;28;19936;-79
2022/01/07 08:50:52;;;;;;;;;;;5.10;1.00;;;;;;5033142;28;19918;-80
2022/01/07 08:53:19;;;;;;;;;;;5.10;1.00;;;;;;5034840;28;19920;-79
2022/01/07 08:55:45;;;;;;;;;;;5.20;99.90;;;;;;5031642;28;19913;-79
2022/01/07 08:58:11;;;;;;;;;;;5.20;99.90;;;;;;5048874;28;19920;-80
2022/01/07 09:00:36;;;;;;;;;;;5.20;99.90;;;;;;5030046;28;19917;-80
2022/01/07 09:03:01;;;;;;;;;;;5.20;99.90;;;;;;5034697;28;20297;-79
2022/01/07 09:05:27;;;;;;;;;;;5.20;94.50;;;;;;5035182;28;19953;-79
2022/01/07 09:07:52;;;;;;;;;;;5.20;99.90;;;;;;5035336;28;19916;-80
2022/01/07 09:10:18;;;;;;;;;;;5.20;71.60;;;;;;5032337;28;20007;-80
2022/01/07 09:12:44;;;;;;;;;;;5.20;58.70;;;;;;5033160;28;19956;-78
2022/01/07 09:15:10;;;;;;;;;;;5.20;23.90;;;;;;5032214;28;19913;-80
2022/01/07 09:17:36;;;;;;;;;;;5.10;29.90;;;;;;5034519;28;20008;-80
2022/01/07 09:20:02;;;;;;;;;;;5.10;99.90;;;;;;5035857;28;19913;-80
2022/01/07 09:22:28;;;;;;;;;;;5.20;99.90;;;;;;5035147;28;19963;-80
2022/01/07 09:24:53;;;;;;;;;;;5.20;58.30;;;;;;5032103;28;20358;-82
2022/01/07 09:27:19;;;;;;;;;;;5.30;86.60;;;;;;5033105;28;19913;-81
2022/01/07 09:29:45;;;;;;;;;;;5.30;1.00;;;;;;5034400;28;19963;-80
2022/01/07 09:32:11;;;;;;;;;;;5.40;1.00;;;;;;5030228;28;20289;-81
2022/01/07 09:34:37;;;;;;;;;;;5.50;1.00;;;;;;5029977;28;19920;-80
2022/01/07 09:37:03;;;;;;;;;;;5.60;99.90;;;;;;5034207;28;19971;-81
2022/01/07 09:39:29;;;;;;;;;;;5.60;99.90;;;;;;5033059;28;19967;-80
2022/01/07 09:41:54;;;;;;;;;;;5.80;99.90;;;;;;5032573;28;19917;-82
2022/01/07 09:44:20;;;;;;;;;;;5.90;1.00;;;;;;5035225;28;19920;-80
2022/01/07 09:46:45;;;;;;;;;;;6.00;1.00;;;;;;5034330;28;19913;-81
2022/01/07 09:49:11;;;;;;;;;;;6.10;1.00;;;;;;5037951;28;20008;-82
2022/01/07 09:51:37;;;;;;;;;;;6.20;99.90;;;;;;5037660;28;19913;-81
2022/01/07 09:54:03;;;;;;;;;;;6.20;99.90;;;;;;5038244;28;19913;-81
2022/01/07 09:56:29;;;;;;;;;;;6.10;99.90;;;;;;5038387;28;19909;-81
2022/01/07 09:58:54;;;;;;;;;;;6.10;99.90;;;;;;5036997;28;20266;-80
2022/01/07 10:01:22;;;;;;;;;;;6.10;99.90;;;;;;5036239;28;20031;-82
2022/01/07 10:03:48;;;;;;;;;;;6.00;99.90;;;;;;5037975;28;19914;-81
2022/01/07 10:06:18;;;;;;;;;;;6.00;99.90;;;;;;5037884;28;20297;-80
2022/01/07 10:08:44;;;;;;;;;;;5.90;99.90;;;;;;5039063;28;20333;-79
2022/01/07 10:11:18;;;;;;;;;;;5.90;99.90;;;;;;5037676;28;19991;-79
2022/01/07 10:13:45;;;;;;;;;;;6.00;99.90;;;;;;5039013;28;20634;-79
2022/01/07 10:16:18;;;;;;;;;;;6.10;99.90;;;;;;5038052;28;20493;-82
2022/01/07 10:18:44;;;;;;;;;;;6.20;99.90;;;;;;5038840;28;20008;-81
2022/01/07 10:21:10;;;;;;;;;;;6.30;99.90;;;;;;5029516;28;19952;-80
2022/01/07 10:23:36;;;;;;;;;;;6.60;99.90;;;;;;5030540;28;19913;-81
2022/01/07 10:26:01;;;;;;;;;;;6.70;1.00;;;;;;5036644;28;20024;-80
2022/01/07 10:28:32;;;;;;;;;;;6.60;1.00;;;;;;5038644;28;19913;-80
2022/01/07 10:31:02;;;;;;;;;;;6.60;1.00;;;;;;5036564;28;19913;-80
2022/01/07 10:33:34;;;;;;;;;;;6.60;1.00;;;;;;5037764;28;19955;-80
2022/01/07 10:36:06;;;;;;;;;;;6.60;1.00;;;;;;5039021;28;19910;-82
2022/01/07 10:38:32;;;;;;;;;;;6.60;1.00;;;;;;5030627;28;20511;-81
2022/01/07 10:41:01;;;;;;;;;;;6.60;1.00;;;;;;5037514;28;20524;-80
2022/01/07 10:43:31;;;;;;;;;;;6.70;1.00;;;;;;5035915;28;20373;-79
2022/01/07 10:45:58;;;;;;;;;;;6.80;1.00;;;;;;5036630;28;19914;-80
2022/01/07 10:48:37;;;;;;;;;;;6.80;1.00;;;;;;5039021;28;19924;-82
2022/01/07 10:51:07;;;;;;;;;;;6.90;99.90;;;;;;5035539;28;19913;-81
2022/01/07 10:53:33;;;;;;;;;;;6.90;99.90;;;;;;5037088;28;19913;-80
2022/01/07 10:55:58;;;;;;;;;;;6.90;99.90;;;;;;5037681;28;19916;-79
2022/01/07 10:58:24;;;;;;;;;;;6.90;99.90;;;;;;5034329;28;19983;-79
2022/01/07 11:00:50;;;;;;;;;;;6.80;99.90;;;;;;5036291;28;19913;-82
2022/01/07 11:03:15;;;;;;;;;;;6.90;99.90;;;;;;5036240;28;19913;-80
2022/01/07 11:05:42;;;;;;;;;;;6.90;99.90;;;;;;5036682;28;20375;-82
2022/01/07 11:08:07;;;;;;;;;;;7.00;99.90;;;;;;5035135;28;19912;-81
2022/01/07 11:10:33;;;;;;;;;;;7.00;99.90;;;;;;5033930;28;19964;-81
2022/01/07 11:12:59;;;;;;;;;;;6.90;99.90;;;;;;5036325;28;19917;-81
2022/01/07 11:15:25;;;;;;;;;;;6.80;99.90;;;;;;5036168;28;19914;-81
2022/01/07 11:17:50;;;;;;;;;;;6.70;99.90;;;;;;5038110;28;19937;-81
2022/01/07 11:20:23;;;;;;;;;;;6.70;99.90;;;;;;5036490;28;19913;-81
2022/01/07 11:22:49;;;;;;;;;;;6.70;99.90;;;;;;5036684;28;19963;-80
2022/01/07 11:25:15;;;;;;;;;;;6.70;1.00;;;;;;5035455;28;19917;-80
2022/01/07 11:27:47;;;;;;;;;;;6.70;1.00;;;;;;5034066;28;19919;-81
2022/01/07 11:30:14;;;;;;;;;;;6.80;1.00;;;;;;5038679;28;20270;-81
2022/01/07 11:32:41;;;;;;;;;;;7.00;1.00;;;;;;5031748;28;19920;-80
2022/01/07 11:35:22;;;;;;;;;;;7.00;99.90;;;;;;5036831;28;19967;-80
2022/01/07 11:37:58;;;;;;;;;;;7.00;99.90;;;;;;5036110;28;19921;-81
2022/01/07 11:40:32;;;;;;;;;;;7.00;99.90;;;;;;5035924;28;19921;-82
2022/01/07 11:42:59;;;;;;;;;;;7.10;99.90;;;;;;5066150;22;20016;-79
2022/01/07 11:45:34;;;;;;;;;;;7.00;99.90;;;;;;5033119;28;19912;-79
2022/01/07 11:48:24;;;;;;;;;;;7.00;99.90;;;;;;5057256;28;19913;-79
2022/01/07 11:50:55;;;;;;;;;;;7.00;1.00;;;;;;5058381;28;19917;-79
2022/01/07 11:53:21;;;;;;;;;;;7.10;1.00;;;;;;5059020;28;19913;-79
2022/01/07 11:55:47;;;;;;;;;;;7.30;99.90;;;;;;5060355;28;19913;-79
2022/01/07 11:58:13;;;;;;;;;;;7.40;99.90;;;;;;5041898;28;19925;-79
2022/01/07 12:00:51;;;;;;;;;;;7.60;99.90;;;;;;5058817;28;19945;-79
2022/01/07 12:03:34;;;;;;;;;;;7.70;99.90;;;;;;5040608;28;19924;-79
2022/01/07 12:06:00;;;;;;;;;;;7.70;99.90;;;;;;5031136;28;20018;-79
2022/01/07 12:08:52;;;;;;;;;;;8.00;99.90;;;;;;5038917;28;19973;-79
2022/01/07 12:11:18;;;;;;;;;;;8.20;99.90;;;;;;5048012;28;19913;-79
2022/01/07 12:13:43;;;;;;;;;;;8.30;1.00;;;;;;5057647;28;19920;-79
2022/01/07 12:16:09;;;;;;;;;;;8.30;1.00;;;;;;5058715;28;19913;-79
2022/01/07 12:18:35;;;;;;;;;;;8.20;1.00;;;;;;5056634;28;19917;-79
2022/01/07 12:21:00;;;;;;;;;;;8.00;1.00;;;;;;5040780;28;19963;-79
2022/01/07 12:23:26;;;;;;;;;;;7.90;1.00;;;;;;5039853;28;20011;-79
2022/01/07 12:25:53;;;;;;;;;;;7.80;1.00;;;;;;5057413;28;19971;-79
2022/01/07 12:28:21;;;;;;;;;;;7.60;1.00;;;;;;5052770;28;21388;-79
2022/01/07 12:30:49;;;;;;;;;;;7.40;1.00;;;;;;5034374;28;20013;-79
2022/01/07 12:33:15;;;;;;;;;;;7.30;1.00;;;;;;5052307;28;19920;-79
2022/01/07 12:35:41;;;;;;;;;;;7.30;1.00;;;;;;5035847;28;20280;-79
2022/01/07 12:38:14;;;;;;;;;;;7.20;6.80;;;;;;5056513;28;19920;-79
2022/01/07 12:40:39;;;;;;;;;;;7.10;88.60;;;;;;5054805;28;19920;-80
2022/01/07 12:43:05;;;;;;;;;;;7.00;99.90;;;;;;5056129;28;19921;-79
2022/01/07 12:45:31;;;;;;;;;;;6.90;1.00;;;;;;5055556;28;19921;-80
2022/01/07 12:47:57;;;;;;;;;;;6.80;1.00;;;;;;5060717;28;19913;-80
2022/01/07 12:50:24;;;;;;;;;;;6.70;99.90;;;;;;5057686;28;19951;-80
2022/01/07 12:52:50;;;;;;;;;;;6.70;99.90;;;;;;5039547;28;20027;-80
2022/01/07 12:55:18;;;;;;;;;;;6.60;1.00;;;;;;5040521;28;19909;-79
2022/01/07 12:57:46;;;;;;;;;;;6.60;1.00;;;;;;5039541;28;20266;-79
2022/01/07 13:00:16;;;;;;;;;;;6.50;99.90;;;;;;5040335;28;19909;-80
2022/01/07 13:02:43;;;;;;;;;;;6.60;1.00;;;;;;5039665;28;19908;-80
2022/01/07 13:05:13;;;;;;;;;;;6.50;99.90;;;;;;5038055;28;19944;-80
2022/01/07 13:07:39;;;;;;;;;;;6.50;99.90;;;;;;5055429;28;19920;-79
2022/01/07 13:10:05;;;;;;;;;;;6.50;99.90;;;;;;5057258;28;19909;-80
2022/01/07 13:12:30;;;;;;;;;;;6.50;99.90;;;;;;5037702;28;20007;-79
2022/01/07 13:14:56;;;;;;;;;;;6.50;99.90;;;;;;5038967;28;19919;-80
2022/01/07 13:17:28;;;;;;;;;;;6.50;99.90;;;;;;5058293;28;19970;-79
2022/01/07 13:19:53;;;;;;;;;;;6.50;99.90;;;;;;5037820;28;19959;-80
2022/01/07 13:22:21;;;;;;;;;;;6.40;99.90;;;;;;5057498;28;19913;-79
2022/01/07 13:24:46;;;;;;;;;;;6.30;1.00;;;;;;5042191;28;19913;-79
2022/01/07 13:27:14;;;;;;;;;;;6.00;1.00;;;;;;5059384;28;19913;-80
2022/01/07 13:29:45;;;;;;;;;;;5.50;99.90;;;;;;5061804;28;19916;-80
2022/01/07 13:32:10;;;;;;;;;;;5.10;99.90;;;;;;5044005;28;19980;-80
2022/01/07 13:34:40;;;;;;;;;;;4.80;1.00;;;;;;5044257;28;19970;-80
2022/01/07 13:37:07;;;;;;;;;;;4.60;99.90;;;;;;5054862;28;19917;-80
2022/01/07 13:39:38;;;;;;;;;;;4.40;99.90;;;;;;5059454;28;19943;-80
2022/01/07 13:42:05;;;;;;;;;;;4.30;1.00;;;;;;5041161;28;19913;-78
2022/01/07 13:44:46;;;;;;;;;;;4.30;99.90;;;;;;5055430;28;19921;-80
2022/01/07 13:47:18;;;;;;;;;;;4.30;1.00;;;;;;5025593;28;19921;-80
2022/01/07 13:49:43;;;;;;;;;;;4.30;1.00;;;;;;5063722;28;19970;-80
2022/01/07 13:52:08;;;;;;;;;;;4.30;1.00;;;;;;5057146;28;19908;-80
2022/01/07 13:54:41;;;;;;;;;;;4.30;99.90;;;;;;5055308;28;20008;-79
2022/01/07 13:57:12;;;;;;;;;;;4.20;99.90;;;;;;5059333;28;19920;-80
2022/01/07 13:59:53;;;;;;;;;;;4.20;99.90;;;;;;5061959;28;19951;-80
2022/01/07 14:02:20;;;;;;;;;;;4.20;99.90;;;;;;5040380;28;19928;-80
2022/01/07 14:04:55;;;;;;;;;;;4.30;99.90;;;;;;5040703;28;19917;-80
2022/01/07 14:07:32;;;;;;;;;;;4.40;99.90;;;;;;5049011;28;19913;-80
2022/01/07 14:10:11;;;;;;;;;;;4.50;99.90;;;;;;5042282;28;19917;-79
2022/01/07 14:12:51;;;;;;;;;;;4.60;99.90;;;;;;5060571;28;19919;-79
2022/01/07 14:15:18;;;;;;;;;;;4.60;1.00;;;;;;5042583;28;19924;-80
2022/01/07 14:17:44;;;;;;;;;;;4.80;1.00;;;;;;5042489;28;19912;-79
2022/01/07 14:20:10;;;;;;;;;;;4.80;1.00;;;;;;5040964;28;19913;-80
2022/01/07 14:22:39;;;;;;;;;;;4.90;1.00;;;;;;5058428;28;20292;-80
2022/01/07 14:25:06;;;;;;;;;;;4.90;1.00;;;;;;5060734;28;19984;-80
2022/01/07 14:27:33;;;;;;;;;;;5.00;1.00;;;;;;5042010;28;19909;-80
2022/01/07 14:30:00;;;;;;;;;;;5.00;1.00;;;;;;5058366;28;19913;-80
2022/01/07 14:32:26;;;;;;;;;;;5.00;1.00;;;;;;5058605;28;19920;-80
2022/01/07 14:34:56;;;;;;;;;;;5.10;41.60;;;;;;5042255;28;19917;-79
2022/01/07 14:37:23;;;;;;;;;;;5.10;99.90;;;;;;5041405;28;19918;-79
2022/01/07 14:39:48;;;;;;;;;;;5.10;99.90;;;;;;5040417;28;19970;-80
2022/01/07 14:42:14;;;;;;;;;;;5.10;99.90;;;;;;5058474;28;19916;-79
2022/01/07 14:44:40;;;;;;;;;;;5.10;99.90;;;;;;5041649;28;19963;-79